Baltimore, Maryland
Traffic Map
Current Weather Conditions
Baltimore, Maryland
Broken Clouds
Broken Clouds
25°
Feels Like: 26°
Wind Chill: 25° Ceiling: 10000
Heat Index: 26° Visibility: 10mi
Dew Point: 17° Wind: 6mph
Humidity: 61% Direction: 60° (ENE)
Pressure: 30.27in Gusts: 0mph
Raw Report DataKBWI 291612Z 06005KT 10SM SCT021 BKN100 BKN140 BKN250 25/17 A3027 RMK AO2
Traffic Incident Summary
Active as of:
Severity:
Category:
InformationThere was an issue retrieving the traffic information for this location. Please try a different location or try again shortly.
Advertisements
Track Severe Weather on mobile